createdAt,value
2023-03-27T00:01:14.828Z,100887.81
2023-03-27T00:03:42.774Z,100894.47
2023-03-27T00:06:12.073Z,100903.44
2023-03-27T00:08:38.846Z,100909.66
2023-03-27T00:11:07.908Z,100912.38
2023-03-27T00:13:35.290Z,100914.72
2023-03-27T00:16:02.787Z,100915.44
2023-03-27T00:18:29.750Z,100918.44
2023-03-27T00:21:03.038Z,100931.25
2023-03-27T00:23:30.862Z,100929.13
2023-03-27T00:25:58.271Z,100920.72
2023-03-27T00:28:27.218Z,100939.94
2023-03-27T00:30:55.806Z,100945.59
2023-03-27T00:33:23.915Z,100946.97
2023-03-27T00:35:51.166Z,100957.94
2023-03-27T00:38:18.699Z,100957.41
2023-03-27T00:40:46.924Z,100967.94
2023-03-27T00:43:24.517Z,100959.88
2023-03-27T00:45:55.290Z,100968.81
2023-03-27T00:48:23.021Z,100969.44
2023-03-27T00:50:49.996Z,100963.97
2023-03-27T00:53:22.449Z,100965.91
2023-03-27T00:55:53.004Z,100970.56
2023-03-27T00:58:33.590Z,100965.72
2023-03-27T01:01:00.363Z,100966.94
2023-03-27T01:03:31.548Z,100973.94
2023-03-27T01:06:01.752Z,100975.53
2023-03-27T01:08:31.937Z,100979.34
2023-03-27T01:11:07.602Z,100982.09
2023-03-27T01:13:59.003Z,100993.31
2023-03-27T01:16:34.525Z,100989.50
2023-03-27T01:19:21.338Z,100997.72
2023-03-27T01:21:53.700Z,101004.38
2023-03-27T01:24:52.249Z,101003.66
2023-03-27T01:27:31.111Z,101010.03
2023-03-27T01:29:57.728Z,101014.19
2023-03-27T01:32:55.515Z,101016.22
2023-03-27T01:35:37.000Z,101012.50
2023-03-27T01:38:25.186Z,101029.06
2023-03-27T01:41:01.767Z,101034.88
2023-03-27T01:43:37.784Z,101034.41
2023-03-27T01:46:15.252Z,101036.34
2023-03-27T01:48:56.128Z,101040.78
2023-03-27T01:51:43.846Z,101040.38
2023-03-27T01:54:19.318Z,101052.03
2023-03-27T01:57:02.512Z,101055.34
2023-03-27T01:59:33.772Z,101057.66
2023-03-27T02:02:05.328Z,101067.41
2023-03-27T02:04:41.779Z,101057.81
2023-03-27T02:07:15.795Z,101065.59
2023-03-27T02:09:49.114Z,101061.41
2023-03-27T02:12:23.681Z,101057.31
2023-03-27T02:15:24.577Z,101067.13
2023-03-27T02:17:52.522Z,101074.09
2023-03-27T02:20:20.311Z,101083.13
2023-03-27T02:22:50.370Z,101087.00
2023-03-27T02:25:47.065Z,101090.09
2023-03-27T02:28:48.731Z,101087.50
2023-03-27T02:31:42.966Z,101094.78
2023-03-27T02:34:38.452Z,101103.69
2023-03-27T02:37:32.728Z,101109.09
2023-03-27T02:40:29.131Z,101116.50
2023-03-27T02:43:07.201Z,101120.72
2023-03-27T02:46:06.392Z,101126.78
2023-03-27T02:48:36.348Z,101131.13
2023-03-27T02:51:43.269Z,101135.00
2023-03-27T02:54:14.921Z,101134.88
2023-03-27T02:56:49.518Z,101126.66
2023-03-27T02:59:18.985Z,101134.66
2023-03-27T03:01:45.733Z,101134.66
2023-03-27T03:04:19.895Z,101139.44
2023-03-27T03:06:46.553Z,101132.28
2023-03-27T03:09:14.859Z,101143.44
2023-03-27T03:11:54.449Z,101152.34
2023-03-27T03:14:30.606Z,101150.06
2023-03-27T03:16:57.302Z,101150.28
2023-03-27T03:19:27.182Z,101158.16
2023-03-27T03:21:53.824Z,101163.97
2023-03-27T03:24:22.176Z,101167.84
2023-03-27T03:26:52.242Z,101162.16
2023-03-27T03:29:19.268Z,101171.19
2023-03-27T03:31:46.034Z,101178.59
2023-03-27T03:34:18.322Z,101180.84
2023-03-27T03:36:49.407Z,101186.22
2023-03-27T03:39:17.144Z,101188.16
2023-03-27T03:41:43.638Z,101194.06
2023-03-27T03:44:10.488Z,101195.91
2023-03-27T03:46:37.130Z,101204.00
2023-03-27T03:49:06.856Z,101198.72
2023-03-27T03:51:34.661Z,101209.34
2023-03-27T03:54:01.596Z,101204.09
2023-03-27T03:56:30.566Z,101213.34
2023-03-27T03:58:57.896Z,101205.47
2023-03-27T04:01:26.070Z,101211.16
2023-03-27T04:03:52.967Z,101212.75
2023-03-27T04:06:25.254Z,101215.06
2023-03-27T04:08:53.072Z,101217.09
2023-03-27T04:11:19.991Z,101229.75
2023-03-27T04:13:46.595Z,101231.38
2023-03-27T04:16:13.132Z,101241.84
2023-03-27T04:18:41.503Z,101245.16
2023-03-27T04:21:16.112Z,101247.91
2023-03-27T04:23:45.130Z,101248.38
2023-03-27T04:26:12.617Z,101249.38
2023-03-27T04:28:39.787Z,101252.22
2023-03-27T04:31:07.878Z,101265.72
2023-03-27T04:33:39.223Z,101259.56
2023-03-27T04:36:08.277Z,101271.44
2023-03-27T04:38:36.986Z,101270.41
2023-03-27T04:41:04.332Z,101269.28
2023-03-27T04:43:31.625Z,101270.84
2023-03-27T04:45:58.178Z,101277.03
2023-03-27T04:48:24.735Z,101281.13
2023-03-27T04:50:51.399Z,101277.38
2023-03-27T04:53:20.525Z,101282.06
2023-03-27T04:55:51.116Z,101289.25
2023-03-27T04:58:18.606Z,101284.94
2023-03-27T05:00:50.432Z,101297.94
2023-03-27T05:03:20.502Z,101293.81
2023-03-27T05:05:49.530Z,101305.34
2023-03-27T05:08:16.922Z,101308.22
2023-03-27T05:10:44.518Z,101301.03
2023-03-27T05:13:11.668Z,101308.66
2023-03-27T05:15:38.986Z,101313.03
2023-03-27T05:18:07.182Z,101315.88
2023-03-27T05:20:34.640Z,101322.59
2023-03-27T05:23:01.407Z,101325.00
2023-03-27T05:25:31.995Z,101333.00
2023-03-27T05:27:59.768Z,101326.03
2023-03-27T05:30:26.985Z,101338.59
2023-03-27T05:32:53.943Z,101345.78
2023-03-27T05:35:23.393Z,101354.16
2023-03-27T05:37:52.581Z,101349.59
2023-03-27T05:40:22.254Z,101356.44
2023-03-27T05:42:51.135Z,101361.34
2023-03-27T05:45:18.422Z,101360.66
2023-03-27T05:47:47.998Z,101368.22
2023-03-27T05:50:16.094Z,101373.13
2023-03-27T05:52:42.798Z,101369.94
2023-03-27T05:55:10.371Z,101374.59
2023-03-27T05:57:41.161Z,101372.78
2023-03-27T06:00:13.917Z,101383.06
2023-03-27T06:02:43.392Z,101377.25
2023-03-27T06:05:15.148Z,101378.41
2023-03-27T06:07:43.422Z,101385.94
2023-03-27T06:10:13.642Z,101389.81
2023-03-27T06:12:41.676Z,101395.16
2023-03-27T06:15:09.696Z,101388.44
2023-03-27T06:17:39.399Z,101386.84
2023-03-27T06:20:12.347Z,101407.41
2023-03-27T06:22:42.608Z,101406.72
2023-03-27T06:25:09.481Z,101405.94
2023-03-27T06:27:35.973Z,101409.44
2023-03-27T06:30:02.456Z,101411.06
2023-03-27T06:32:28.955Z,101406.16
2023-03-27T06:34:55.480Z,101415.19
2023-03-27T06:37:24.957Z,101415.28
2023-03-27T06:39:51.650Z,101423.75
2023-03-27T06:42:18.455Z,101422.94
2023-03-27T06:44:44.972Z,101431.44
2023-03-27T06:47:12.660Z,101432.34
2023-03-27T06:49:39.226Z,101426.94
2023-03-27T06:52:05.818Z,101432.56
2023-03-27T06:54:32.350Z,101437.78
2023-03-27T06:57:01.232Z,101433.47
2023-03-27T06:59:27.775Z,101427.28
2023-03-27T07:01:54.314Z,101445.22
2023-03-27T07:04:21.305Z,101445.69
2023-03-27T07:06:48.940Z,101444.53
2023-03-27T07:09:15.627Z,101446.22
2023-03-27T07:11:42.491Z,101456.03
2023-03-27T07:14:09.032Z,101449.16
2023-03-27T07:16:35.715Z,101456.38
2023-03-27T07:19:02.671Z,101457.53
2023-03-27T07:21:29.571Z,101465.72
2023-03-27T07:23:56.172Z,101475.88
2023-03-27T07:26:22.740Z,101476.91
2023-03-27T07:28:50.569Z,101488.88
2023-03-27T07:33:46.803Z,101481.25
2023-03-27T07:36:14.191Z,101492.97
2023-03-27T07:38:42.141Z,101496.28
2023-03-27T07:41:09.290Z,101503.81
2023-03-27T07:43:35.885Z,101502.00
2023-03-27T07:46:03.342Z,101505.88
2023-03-27T07:48:30.482Z,101505.72
2023-03-27T07:51:10.637Z,101506.06
2023-03-27T07:53:39.642Z,101507.75
2023-03-27T07:56:08.782Z,101514.56
2023-03-27T07:58:35.472Z,101518.75
2023-03-27T08:01:02.775Z,101512.28
2023-03-27T08:03:30.809Z,101522.50
2023-03-27T08:05:59.949Z,101522.06
2023-03-27T08:08:27.306Z,101525.00
2023-03-27T08:10:55.430Z,101508.22
2023-03-27T08:13:21.960Z,101519.03
2023-03-27T08:15:48.506Z,101523.41
2023-03-27T08:18:14.996Z,101523.75
2023-03-27T08:20:42.403Z,101529.88
2023-03-27T08:23:08.897Z,101539.63
2023-03-27T08:25:35.676Z,101543.00
2023-03-27T08:28:02.838Z,101536.34
2023-03-27T08:30:30.167Z,101545.59
2023-03-27T08:32:57.813Z,101541.13
2023-03-27T08:35:24.354Z,101542.63
2023-03-27T08:37:52.741Z,101550.59
2023-03-27T08:40:28.003Z,101549.00
2023-03-27T08:42:58.181Z,101554.88
2023-03-27T08:45:29.726Z,101558.16
2023-03-27T08:48:07.318Z,101553.16
2023-03-27T08:50:40.996Z,101561.69
2023-03-27T08:53:17.762Z,101565.47
2023-03-27T08:55:44.581Z,101565.44
2023-03-27T08:58:20.342Z,101559.28
2023-03-27T09:00:55.081Z,101576.28
2023-03-27T09:03:28.591Z,101577.44
2023-03-27T09:06:08.610Z,101569.31
2023-03-27T09:09:03.942Z,101580.91
2023-03-27T09:12:00.352Z,101586.16
2023-03-27T09:14:31.306Z,101573.13
2023-03-27T09:17:04.729Z,101582.44
2023-03-27T09:19:44.098Z,101577.88
2023-03-27T09:22:16.812Z,101578.72
2023-03-27T09:24:47.121Z,101573.88
2023-03-27T09:27:21.949Z,101579.53
2023-03-27T09:30:14.324Z,101585.31
2023-03-27T09:32:42.927Z,101587.75
2023-03-27T09:35:15.332Z,101582.72
2023-03-27T09:37:45.121Z,101592.34
2023-03-27T09:40:25.571Z,101595.47
2023-03-27T09:42:54.551Z,101576.38
2023-03-27T09:45:21.746Z,101589.03
2023-03-27T09:48:02.160Z,101588.84
2023-03-27T09:50:34.915Z,101589.56
2023-03-27T09:53:16.213Z,101596.88
2023-03-27T09:55:52.711Z,101597.56
2023-03-27T09:58:28.429Z,101601.09
2023-03-27T10:01:13.748Z,101611.28
2023-03-27T10:03:52.507Z,101605.75
2023-03-27T10:06:30.943Z,101606.16
2023-03-27T10:09:07.026Z,101610.81
2023-03-27T10:11:35.585Z,101609.78
2023-03-27T10:14:12.411Z,101609.13
2023-03-27T10:16:41.548Z,101605.81
2023-03-27T10:19:31.776Z,101603.22
2023-03-27T10:22:07.584Z,101618.75
2023-03-27T10:24:44.358Z,101627.63
2023-03-27T10:27:26.518Z,101619.88
2023-03-27T10:29:53.116Z,101618.22
2023-03-27T10:32:40.316Z,101618.84
2023-03-27T10:35:22.896Z,101623.63
2023-03-27T10:37:51.459Z,101620.25
2023-03-27T10:40:26.313Z,101623.75
2023-03-27T10:42:56.771Z,101618.44
2023-03-27T10:45:23.904Z,101624.28
2023-03-27T10:48:00.854Z,101631.34
2023-03-27T10:50:38.397Z,101625.78
2023-03-27T10:53:04.843Z,101617.63
2023-03-27T10:55:48.472Z,101624.13
2023-03-27T10:58:23.636Z,101613.53
2023-03-27T11:01:19.365Z,101622.31
2023-03-27T11:04:05.596Z,101624.91
2023-03-27T11:06:38.224Z,101623.53
2023-03-27T11:09:06.975Z,101631.25
2023-03-27T11:11:42.584Z,101626.47
2023-03-27T11:14:20.045Z,101633.25
2023-03-27T11:16:53.742Z,101630.19
2023-03-27T11:19:29.173Z,101631.09
2023-03-27T11:22:02.567Z,101645.03
2023-03-27T11:24:35.302Z,101667.84
2023-03-27T11:27:09.963Z,101690.69
2023-03-27T11:29:44.210Z,101710.00
2023-03-27T11:32:33.612Z,101701.88
2023-03-27T11:35:12.563Z,101696.22
2023-03-27T11:37:47.141Z,101688.88
2023-03-27T11:40:24.744Z,101698.69
2023-03-27T11:42:51.328Z,101695.38
2023-03-27T11:45:23.414Z,101697.53
2023-03-27T11:48:28.414Z,101694.25
2023-03-27T11:51:36.908Z,101697.66
2023-03-27T11:54:44.289Z,101689.38
2023-03-27T11:57:22.616Z,101703.41
2023-03-27T12:00:06.133Z,101695.34
2023-03-27T12:02:55.368Z,101697.53
2023-03-27T12:05:46.690Z,101709.47
2023-03-27T12:08:24.810Z,101688.97
2023-03-27T12:10:54.634Z,101690.63
2023-03-27T12:13:28.731Z,101699.09
2023-03-27T12:16:40.207Z,101701.13
2023-03-27T12:22:24.037Z,101690.84
2023-03-27T12:25:22.200Z,101686.84
2023-03-27T12:28:23.112Z,101689.22
2023-03-27T12:31:03.980Z,101681.31
2023-03-27T12:33:53.089Z,101689.31
2023-03-27T12:36:24.388Z,101694.88
2023-03-27T12:38:54.213Z,101714.31
2023-03-27T12:41:24.655Z,101729.75
2023-03-27T12:43:59.484Z,101743.63
2023-03-27T12:46:29.168Z,101738.53
2023-03-27T12:49:13.683Z,101734.06
2023-03-27T12:51:47.454Z,101722.13
2023-03-27T12:54:27.638Z,101739.56
2023-03-27T12:57:27.219Z,101743.75
2023-03-27T13:00:10.239Z,101746.59
2023-03-27T13:02:57.540Z,101744.34
2023-03-27T13:05:42.637Z,101751.72
2023-03-27T13:08:29.906Z,101746.53
2023-03-27T13:11:08.013Z,101751.53
2023-03-27T13:13:46.487Z,101747.38
2023-03-27T13:16:43.389Z,101747.34
2023-03-27T13:19:09.980Z,101762.69
2023-03-27T13:21:52.294Z,101748.25
2023-03-27T13:24:52.730Z,101746.94
2023-03-27T13:27:41.081Z,101746.44
2023-03-27T13:30:47.060Z,101744.75
2023-03-27T13:33:39.622Z,101731.03
2023-03-27T13:36:17.540Z,101741.41
2023-03-27T13:38:56.580Z,101745.00
2023-03-27T13:41:38.669Z,101741.72
2023-03-27T13:44:10.706Z,101750.53
2023-03-27T13:46:39.368Z,101736.03
2023-03-27T13:49:27.838Z,101740.03
2023-03-27T13:52:16.675Z,101742.13
2023-03-27T13:55:18.714Z,101738.66
2023-03-27T13:58:18.865Z,101738.00
2023-03-27T14:01:07.724Z,101744.84
2023-03-27T14:03:58.873Z,101737.09
2023-03-27T14:06:56.271Z,101733.66
2023-03-27T14:09:50.510Z,101741.03
2023-03-27T14:12:30.880Z,101734.91
2023-03-27T14:15:09.281Z,101737.38
2023-03-27T14:17:42.909Z,101731.38
2023-03-27T14:20:21.057Z,101727.84
2023-03-27T14:23:03.381Z,101729.25
2023-03-27T14:25:36.477Z,101724.84
2023-03-27T14:28:03.163Z,101716.66
2023-03-27T14:30:41.264Z,101724.97
2023-03-27T14:33:09.215Z,101723.22
2023-03-27T14:35:42.390Z,101725.06
2023-03-27T14:38:26.089Z,101722.47
2023-03-27T14:41:20.395Z,101727.28
2023-03-27T14:43:52.127Z,101729.72
2023-03-27T14:46:24.053Z,101721.78
2023-03-27T14:48:58.037Z,101724.97
2023-03-27T14:51:37.015Z,101740.63
2023-03-27T14:54:12.589Z,101734.66
2023-03-27T14:56:47.633Z,101742.19
2023-03-27T14:59:20.640Z,101729.81
2023-03-27T15:01:49.846Z,101738.50
2023-03-27T15:04:17.146Z,101734.41
2023-03-27T15:06:43.667Z,101749.41
2023-03-27T15:09:27.993Z,101754.44
2023-03-27T15:11:56.076Z,101756.25
2023-03-27T15:14:27.897Z,101751.78
2023-03-27T15:17:01.388Z,101748.41
2023-03-27T15:19:31.925Z,101748.19
2023-03-27T15:22:23.395Z,101754.03
2023-03-27T15:24:58.605Z,101750.09
2023-03-27T15:27:29.902Z,101753.25
2023-03-27T15:29:57.667Z,101756.66
2023-03-27T15:32:30.897Z,101759.94
2023-03-27T15:35:03.350Z,101759.94
2023-03-27T15:37:31.724Z,101757.47
2023-03-27T15:40:22.470Z,101769.50
2023-03-27T15:42:51.643Z,101770.28
2023-03-27T15:45:21.801Z,101778.94
2023-03-27T15:48:01.802Z,101772.88
2023-03-27T15:50:28.857Z,101769.19
2023-03-27T15:52:58.213Z,101764.41
2023-03-27T15:55:39.175Z,101767.88
2023-03-27T15:58:23.283Z,101770.84
2023-03-27T16:00:52.301Z,101763.38
2023-03-27T16:03:23.211Z,101778.63
2023-03-27T16:05:52.066Z,101797.91
2023-03-27T16:08:36.637Z,101787.66
2023-03-27T16:11:04.928Z,101794.59
2023-03-27T16:13:54.680Z,101797.53
2023-03-27T16:16:25.940Z,101805.88
2023-03-27T16:18:53.385Z,101826.38
2023-03-27T16:21:25.546Z,101821.75
2023-03-27T16:23:52.099Z,101824.56
2023-03-27T16:26:25.452Z,101826.84
2023-03-27T16:28:55.036Z,101836.25
2023-03-27T16:31:21.498Z,101830.44
2023-03-27T16:33:48.056Z,101824.81
2023-03-27T16:36:31.210Z,101837.72
2023-03-27T16:38:57.718Z,101843.34
2023-03-27T16:41:24.278Z,101844.69
2023-03-27T16:44:02.179Z,101847.41
2023-03-27T16:46:30.558Z,101852.31
2023-03-27T16:48:58.312Z,101853.28
2023-03-27T16:51:27.312Z,101852.91
2023-03-27T16:53:54.018Z,101850.97
2023-03-27T16:56:21.221Z,101857.47
2023-03-27T16:58:47.703Z,101863.28
2023-03-27T17:01:17.093Z,101864.88
2023-03-27T17:03:43.747Z,101877.09
2023-03-27T17:06:12.733Z,101874.34
2023-03-27T17:08:39.503Z,101874.78
2023-03-27T17:11:09.084Z,101875.28
2023-03-27T17:13:36.600Z,101881.16
2023-03-27T17:16:03.789Z,101888.00
2023-03-27T17:18:30.274Z,101880.38
2023-03-27T17:20:57.210Z,101880.63
2023-03-27T17:23:24.026Z,101891.69
2023-03-27T17:25:50.824Z,101891.03
2023-03-27T17:28:20.300Z,101899.25
2023-03-27T17:30:56.620Z,101897.72
2023-03-27T17:33:28.496Z,101904.66
2023-03-27T17:35:57.110Z,101904.16
2023-03-27T17:38:24.125Z,101919.84
2023-03-27T17:40:51.445Z,101923.69
2023-03-27T17:43:18.339Z,101918.44
2023-03-27T17:45:44.996Z,101922.44
2023-03-27T17:48:11.776Z,101931.59
2023-03-27T17:50:39.294Z,101932.69
2023-03-27T17:53:05.819Z,101927.09
2023-03-27T17:55:39.042Z,101934.38
2023-03-27T17:58:09.811Z,101940.34
2023-03-27T18:00:41.261Z,101943.38
2023-03-27T18:03:09.012Z,101946.94
2023-03-27T18:05:40.194Z,101944.63
2023-03-27T18:08:11.528Z,101950.22
2023-03-27T18:10:50.257Z,101953.53
2023-03-27T18:13:29.943Z,101950.22
2023-03-27T18:15:58.226Z,101952.44
2023-03-27T18:18:25.523Z,101949.94
2023-03-27T18:20:53.141Z,101957.03
2023-03-27T18:23:20.293Z,101958.91
2023-03-27T18:25:46.827Z,101959.41
2023-03-27T18:28:13.505Z,101961.75
2023-03-27T18:30:40.086Z,101968.84
2023-03-27T18:33:06.693Z,101965.47
2023-03-27T18:35:36.400Z,101968.03
2023-03-27T18:38:03.879Z,101970.59
2023-03-27T18:40:32.750Z,101968.88
2023-03-27T18:42:59.333Z,101981.03
2023-03-27T18:45:37.863Z,101986.78
2023-03-27T18:48:04.491Z,101991.75
2023-03-27T18:50:31.290Z,101992.09
2023-03-27T18:52:57.743Z,101995.53
2023-03-27T18:55:24.277Z,102000.22
2023-03-27T18:57:50.916Z,101994.28
2023-03-27T19:00:20.252Z,101997.59
2023-03-27T19:02:48.962Z,102000.03
2023-03-27T19:05:17.010Z,102004.19
2023-03-27T19:07:44.910Z,102003.16
2023-03-27T19:10:12.680Z,102008.44
2023-03-27T19:12:39.306Z,102020.25
2023-03-27T19:15:18.969Z,102014.97
2023-03-27T19:17:46.596Z,102017.16
2023-03-27T19:20:13.733Z,102020.00
2023-03-27T19:22:40.209Z,102021.03
2023-03-27T19:25:07.325Z,102017.94
2023-03-27T19:27:38.813Z,102016.25
2023-03-27T19:30:07.574Z,102020.25
2023-03-27T19:32:34.166Z,102027.69
2023-03-27T19:35:00.763Z,102025.50
2023-03-27T19:37:27.916Z,102021.03
2023-03-27T19:39:55.143Z,102026.06
2023-03-27T19:42:21.637Z,102024.94
2023-03-27T19:44:48.076Z,102019.97
2023-03-27T19:47:14.512Z,102026.41
2023-03-27T19:49:42.575Z,102024.56
2023-03-27T19:52:09.763Z,102027.31
2023-03-27T19:54:36.218Z,102038.75
2023-03-27T19:57:02.815Z,102041.94
2023-03-27T19:59:31.011Z,102045.16
2023-03-27T20:01:58.118Z,102043.53
2023-03-27T20:04:24.767Z,102054.66
2023-03-27T20:06:51.476Z,102053.06
2023-03-27T20:09:18.948Z,102058.44
2023-03-27T20:11:46.348Z,102042.59
2023-03-27T20:14:13.372Z,102048.78
2023-03-27T20:16:39.972Z,102060.47
2023-03-27T20:19:06.848Z,102053.91
2023-03-27T20:21:36.164Z,102056.88
2023-03-27T20:24:03.371Z,102053.31
2023-03-27T20:26:29.945Z,102062.34
2023-03-27T20:28:56.478Z,102067.06
2023-03-27T20:31:23.057Z,102065.34
2023-03-27T20:33:49.880Z,102073.31
2023-03-27T20:36:19.695Z,102066.41
2023-03-27T20:38:46.411Z,102071.25
2023-03-27T20:41:15.894Z,102065.53
2023-03-27T20:43:45.743Z,102077.25
2023-03-27T20:46:14.177Z,102069.56
2023-03-27T20:48:41.682Z,102076.88
2023-03-27T20:51:24.105Z,102076.88
2023-03-27T20:53:58.101Z,102075.59
2023-03-27T20:56:24.881Z,102072.84
2023-03-27T20:58:51.664Z,102072.84
2023-03-27T21:01:27.849Z,102068.22
2023-03-27T21:03:58.108Z,102079.53
2023-03-27T21:06:25.771Z,102071.50
2023-03-27T21:08:52.192Z,102074.31
2023-03-27T21:11:18.766Z,102077.06
2023-03-27T21:13:45.627Z,102083.22
2023-03-27T21:16:12.120Z,102077.22
2023-03-27T21:18:38.844Z,102077.22
2023-03-27T21:21:05.638Z,102083.53
2023-03-27T21:23:32.175Z,102085.47
2023-03-27T21:25:58.851Z,102083.38
2023-03-27T21:28:25.656Z,102079.34
2023-03-27T21:30:52.208Z,102085.00
2023-03-27T21:33:18.797Z,102084.22
2023-03-27T21:35:47.169Z,102087.75
2023-03-27T21:38:15.579Z,102086.63
2023-03-27T21:40:42.124Z,102091.28
2023-03-27T21:43:09.136Z,102094.84
2023-03-27T21:45:36.580Z,102096.63
2023-03-27T21:48:03.656Z,102098.09
2023-03-27T21:50:30.310Z,102095.34
2023-03-27T21:52:57.251Z,102094.25
2023-03-27T21:55:23.691Z,102097.81
2023-03-27T21:57:51.183Z,102100.56
2023-03-27T22:00:17.953Z,102106.19
2023-03-27T22:02:44.534Z,102105.91
2023-03-27T22:05:11.065Z,102110.09
2023-03-27T22:07:37.519Z,102104.59
2023-03-27T22:10:06.402Z,102115.25
2023-03-27T22:12:37.411Z,102117.66
2023-03-27T22:15:06.908Z,102118.78
2023-03-27T22:17:36.279Z,102118.16
2023-03-27T22:20:04.534Z,102120.13
2023-03-27T22:22:31.230Z,102116.06
2023-03-27T22:24:57.635Z,102125.28
2023-03-27T22:27:24.091Z,102127.22
2023-03-27T22:29:50.742Z,102121.72
2023-03-27T22:32:17.188Z,102126.66
2023-03-27T22:34:43.652Z,102133.28
2023-03-27T22:37:10.210Z,102129.13
2023-03-27T22:39:36.738Z,102137.38
2023-03-27T22:42:03.251Z,102136.75
2023-03-27T22:44:30.948Z,102129.34
2023-03-27T22:46:58.892Z,102147.56
2023-03-27T22:49:26.149Z,102143.22
2023-03-27T22:51:52.643Z,102136.50
2023-03-27T22:54:19.369Z,102150.38
2023-03-27T22:56:46.930Z,102140.69
2023-03-27T22:59:14.340Z,102153.94
2023-03-27T23:01:40.994Z,102150.38
2023-03-27T23:04:07.576Z,102151.22
2023-03-27T23:06:34.081Z,102151.69
2023-03-27T23:09:00.736Z,102160.09
2023-03-27T23:11:27.201Z,102161.22
2023-03-27T23:13:53.662Z,102157.81
2023-03-27T23:16:20.339Z,102161.38
2023-03-27T23:18:46.874Z,102162.84
2023-03-27T23:21:16.434Z,102172.19
2023-03-27T23:23:43.430Z,102167.81
2023-03-27T23:26:10.399Z,102171.19
2023-03-27T23:28:39.499Z,102177.19
2023-03-27T23:31:10.393Z,102170.88
2023-03-27T23:33:39.013Z,102175.56
2023-03-27T23:36:25.378Z,102165.72
2023-03-27T23:38:52.985Z,102173.94
2023-03-27T23:41:20.203Z,102180.25
2023-03-27T23:43:46.848Z,102175.56
2023-03-27T23:46:14.098Z,102177.00
2023-03-27T23:48:42.415Z,102177.00
2023-03-27T23:51:10.228Z,102179.09
2023-03-27T23:53:37.190Z,102175.22
2023-03-27T23:56:04.006Z,102183.28
2023-03-27T23:58:33.926Z,102187.00
